sensor_id;sensor_type;location;lat;lon;timestamp;P1;durP1;ratioP1;P2;durP2;ratioP2
37645;SDS011;23489;49.600;6.138;2023-02-21T00:01:38;21.30;;;9.70;;
37645;SDS011;23489;49.600;6.138;2023-02-21T00:04:22;21.42;;;9.77;;
37645;SDS011;23489;49.600;6.138;2023-02-21T00:07:07;20.23;;;10.18;;
37645;SDS011;23489;49.600;6.138;2023-02-21T00:09:51;19.35;;;10.02;;
37645;SDS011;23489;49.600;6.138;2023-02-21T00:12:35;14.95;;;10.18;;
37645;SDS011;23489;49.600;6.138;2023-02-21T00:15:20;18.52;;;10.75;;
37645;SDS011;23489;49.600;6.138;2023-02-21T00:18:04;21.75;;;10.43;;
37645;SDS011;23489;49.600;6.138;2023-02-21T00:20:48;15.10;;;9.45;;
37645;SDS011;23489;49.600;6.138;2023-02-21T00:23:33;15.27;;;9.43;;
37645;SDS011;23489;49.600;6.138;2023-02-21T00:26:18;15.57;;;9.40;;
37645;SDS011;23489;49.600;6.138;2023-02-21T00:29:02;14.02;;;8.48;;
37645;SDS011;23489;49.600;6.138;2023-02-21T00:31:47;20.73;;;9.02;;
37645;SDS011;23489;49.600;6.138;2023-02-21T00:34:31;14.05;;;8.82;;
37645;SDS011;23489;49.600;6.138;2023-02-21T00:37:16;19.60;;;9.75;;
37645;SDS011;23489;49.600;6.138;2023-02-21T00:40:00;20.98;;;10.55;;
37645;SDS011;23489;49.600;6.138;2023-02-21T00:42:44;17.77;;;10.32;;
37645;SDS011;23489;49.600;6.138;2023-02-21T00:45:29;21.63;;;10.30;;
37645;SDS011;23489;49.600;6.138;2023-02-21T00:48:21;19.67;;;10.80;;
37645;SDS011;23489;49.600;6.138;2023-02-21T00:51:06;20.55;;;10.75;;
37645;SDS011;23489;49.600;6.138;2023-02-21T00:53:51;14.13;;;9.75;;
37645;SDS011;23489;49.600;6.138;2023-02-21T00:56:36;18.55;;;10.25;;
37645;SDS011;23489;49.600;6.138;2023-02-21T00:59:20;18.52;;;10.30;;
37645;SDS011;23489;49.600;6.138;2023-02-21T01:02:05;19.88;;;11.05;;
37645;SDS011;23489;49.600;6.138;2023-02-21T01:04:50;22.58;;;10.65;;
37645;SDS011;23489;49.600;6.138;2023-02-21T01:07:34;24.15;;;10.93;;
37645;SDS011;23489;49.600;6.138;2023-02-21T01:10:18;17.30;;;10.27;;
37645;SDS011;23489;49.600;6.138;2023-02-21T01:13:04;17.33;;;9.32;;
37645;SDS011;23489;49.600;6.138;2023-02-21T01:15:49;15.75;;;10.88;;
37645;SDS011;23489;49.600;6.138;2023-02-21T01:18:34;16.00;;;10.02;;
37645;SDS011;23489;49.600;6.138;2023-02-21T01:21:18;18.60;;;10.13;;
37645;SDS011;23489;49.600;6.138;2023-02-21T01:24:03;16.40;;;9.93;;
37645;SDS011;23489;49.600;6.138;2023-02-21T01:26:49;18.15;;;10.63;;
37645;SDS011;23489;49.600;6.138;2023-02-21T01:29:33;16.20;;;9.82;;
37645;SDS011;23489;49.600;6.138;2023-02-21T01:32:18;16.45;;;10.05;;
37645;SDS011;23489;49.600;6.138;2023-02-21T01:35:03;15.75;;;9.55;;
37645;SDS011;23489;49.600;6.138;2023-02-21T01:37:49;17.42;;;8.68;;
37645;SDS011;23489;49.600;6.138;2023-02-21T01:40:36;15.40;;;9.05;;
37645;SDS011;23489;49.600;6.138;2023-02-21T01:43:21;17.63;;;10.13;;
37645;SDS011;23489;49.600;6.138;2023-02-21T01:46:08;16.67;;;10.52;;
37645;SDS011;23489;49.600;6.138;2023-02-21T01:48:54;18.70;;;10.60;;
37645;SDS011;23489;49.600;6.138;2023-02-21T01:51:41;18.70;;;11.90;;
37645;SDS011;23489;49.600;6.138;2023-02-21T01:54:29;16.30;;;10.48;;
37645;SDS011;23489;49.600;6.138;2023-02-21T01:57:17;18.40;;;10.80;;
37645;SDS011;23489;49.600;6.138;2023-02-21T02:00:04;20.75;;;10.45;;
37645;SDS011;23489;49.600;6.138;2023-02-21T02:02:59;16.70;;;11.48;;
37645;SDS011;23489;49.600;6.138;2023-02-21T02:05:48;16.00;;;10.48;;
37645;SDS011;23489;49.600;6.138;2023-02-21T02:08:36;17.40;;;11.20;;
37645;SDS011;23489;49.600;6.138;2023-02-21T02:14:49;19.33;;;11.82;;
37645;SDS011;23489;49.600;6.138;2023-02-21T02:17:30;23.00;;;12.18;;
37645;SDS011;23489;49.600;6.138;2023-02-21T02:35:00;18.17;;;12.18;;
37645;SDS011;23489;49.600;6.138;2023-02-21T02:40:06;22.50;;;12.23;;
37645;SDS011;23489;49.600;6.138;2023-02-21T02:45:33;20.40;;;12.50;;
37645;SDS011;23489;49.600;6.138;2023-02-21T02:48:14;21.10;;;12.40;;
37645;SDS011;23489;49.600;6.138;2023-02-21T02:50:46;24.00;;;12.85;;
37645;SDS011;23489;49.600;6.138;2023-02-21T02:53:16;21.58;;;12.40;;
37645;SDS011;23489;49.600;6.138;2023-02-21T02:55:47;20.58;;;12.38;;
37645;SDS011;23489;49.600;6.138;2023-02-21T02:58:17;21.17;;;12.55;;
37645;SDS011;23489;49.600;6.138;2023-02-21T03:00:54;19.50;;;12.30;;
37645;SDS011;23489;49.600;6.138;2023-02-21T03:03:45;24.33;;;13.35;;
37645;SDS011;23489;49.600;6.138;2023-02-21T03:06:18;24.02;;;12.45;;
37645;SDS011;23489;49.600;6.138;2023-02-21T03:09:14;26.38;;;14.25;;
37645;SDS011;23489;49.600;6.138;2023-02-21T03:12:00;24.45;;;13.25;;
37645;SDS011;23489;49.600;6.138;2023-02-21T03:14:36;25.27;;;13.80;;
37645;SDS011;23489;49.600;6.138;2023-02-21T03:17:11;25.10;;;14.13;;
37645;SDS011;23489;49.600;6.138;2023-02-21T03:19:41;24.95;;;13.82;;
37645;SDS011;23489;49.600;6.138;2023-02-21T03:22:12;24.67;;;12.95;;
37645;SDS011;23489;49.600;6.138;2023-02-21T03:24:41;26.58;;;14.63;;
37645;SDS011;23489;49.600;6.138;2023-02-21T03:27:09;30.80;;;13.50;;
37645;SDS011;23489;49.600;6.138;2023-02-21T03:29:45;27.85;;;13.85;;
37645;SDS011;23489;49.600;6.138;2023-02-21T03:32:14;20.65;;;12.85;;
37645;SDS011;23489;49.600;6.138;2023-02-21T03:34:49;25.42;;;12.70;;
37645;SDS011;23489;49.600;6.138;2023-02-21T03:37:21;23.27;;;12.57;;
37645;SDS011;23489;49.600;6.138;2023-02-21T03:39:55;23.58;;;12.10;;
37645;SDS011;23489;49.600;6.138;2023-02-21T03:42:21;17.73;;;12.30;;
37645;SDS011;23489;49.600;6.138;2023-02-21T03:44:47;22.08;;;12.15;;
37645;SDS011;23489;49.600;6.138;2023-02-21T03:47:13;19.77;;;12.40;;
37645;SDS011;23489;49.600;6.138;2023-02-21T03:49:39;20.48;;;12.05;;
37645;SDS011;23489;49.600;6.138;2023-02-21T03:52:05;20.42;;;11.90;;
37645;SDS011;23489;49.600;6.138;2023-02-21T03:54:30;19.23;;;11.10;;
37645;SDS011;23489;49.600;6.138;2023-02-21T03:56:58;18.25;;;11.15;;
37645;SDS011;23489;49.600;6.138;2023-02-21T03:59:27;19.45;;;11.48;;
37645;SDS011;23489;49.600;6.138;2023-02-21T04:01:53;19.17;;;11.55;;
37645;SDS011;23489;49.600;6.138;2023-02-21T04:04:19;21.63;;;12.00;;
37645;SDS011;23489;49.600;6.138;2023-02-21T04:06:53;22.55;;;12.68;;
37645;SDS011;23489;49.600;6.138;2023-02-21T04:09:19;23.58;;;12.85;;
37645;SDS011;23489;49.600;6.138;2023-02-21T04:11:45;20.70;;;12.32;;
37645;SDS011;23489;49.600;6.138;2023-02-21T04:14:12;24.88;;;13.23;;
37645;SDS011;23489;49.600;6.138;2023-02-21T04:16:39;25.98;;;13.20;;
37645;SDS011;23489;49.600;6.138;2023-02-21T04:19:06;22.95;;;13.05;;
37645;SDS011;23489;49.600;6.138;2023-02-21T04:21:32;25.40;;;14.35;;
37645;SDS011;23489;49.600;6.138;2023-02-21T04:23:59;26.80;;;14.07;;
37645;SDS011;23489;49.600;6.138;2023-02-21T04:26:30;27.98;;;13.70;;
37645;SDS011;23489;49.600;6.138;2023-02-21T04:28:56;27.92;;;13.88;;
37645;SDS011;23489;49.600;6.138;2023-02-21T04:31:22;27.15;;;14.68;;
37645;SDS011;23489;49.600;6.138;2023-02-21T04:33:49;26.35;;;14.80;;
37645;SDS011;23489;49.600;6.138;2023-02-21T04:36:20;27.92;;;14.15;;
37645;SDS011;23489;49.600;6.138;2023-02-21T04:38:46;26.80;;;14.63;;
37645;SDS011;23489;49.600;6.138;2023-02-21T04:41:12;28.17;;;15.30;;
37645;SDS011;23489;49.600;6.138;2023-02-21T04:43:40;27.02;;;14.55;;
37645;SDS011;23489;49.600;6.138;2023-02-21T04:46:07;27.27;;;14.32;;
37645;SDS011;23489;49.600;6.138;2023-02-21T04:48:32;23.58;;;14.07;;
37645;SDS011;23489;49.600;6.138;2023-02-21T04:50:58;25.17;;;15.18;;
37645;SDS011;23489;49.600;6.138;2023-02-21T04:53:23;24.13;;;14.07;;
37645;SDS011;23489;49.600;6.138;2023-02-21T04:55:49;26.95;;;15.02;;
37645;SDS011;23489;49.600;6.138;2023-02-21T04:58:15;25.77;;;15.27;;
37645;SDS011;23489;49.600;6.138;2023-02-21T05:00:40;23.23;;;13.48;;
37645;SDS011;23489;49.600;6.138;2023-02-21T05:03:06;26.58;;;14.10;;
37645;SDS011;23489;49.600;6.138;2023-02-21T05:05:32;30.15;;;14.95;;
37645;SDS011;23489;49.600;6.138;2023-02-21T05:07:57;27.25;;;15.75;;
37645;SDS011;23489;49.600;6.138;2023-02-21T05:10:23;27.70;;;16.13;;
37645;SDS011;23489;49.600;6.138;2023-02-21T05:12:48;24.88;;;15.50;;
37645;SDS011;23489;49.600;6.138;2023-02-21T05:15:14;29.70;;;16.50;;
37645;SDS011;23489;49.600;6.138;2023-02-21T05:17:40;26.95;;;15.63;;
37645;SDS011;23489;49.600;6.138;2023-02-21T05:20:06;25.67;;;14.93;;
37645;SDS011;23489;49.600;6.138;2023-02-21T05:22:38;25.30;;;14.65;;
37645;SDS011;23489;49.600;6.138;2023-02-21T05:25:13;25.30;;;14.68;;
37645;SDS011;23489;49.600;6.138;2023-02-21T05:27:40;24.33;;;13.43;;
37645;SDS011;23489;49.600;6.138;2023-02-21T05:30:06;24.75;;;13.98;;
37645;SDS011;23489;49.600;6.138;2023-02-21T05:32:32;24.17;;;14.07;;
37645;SDS011;23489;49.600;6.138;2023-02-21T05:34:58;26.33;;;13.98;;
37645;SDS011;23489;49.600;6.138;2023-02-21T05:37:23;26.88;;;14.55;;
37645;SDS011;23489;49.600;6.138;2023-02-21T05:39:49;24.63;;;13.98;;
37645;SDS011;23489;49.600;6.138;2023-02-21T05:42:15;23.13;;;13.85;;
37645;SDS011;23489;49.600;6.138;2023-02-21T05:44:42;24.90;;;13.77;;
37645;SDS011;23489;49.600;6.138;2023-02-21T05:47:09;25.13;;;13.65;;
37645;SDS011;23489;49.600;6.138;2023-02-21T05:49:35;25.63;;;13.35;;
37645;SDS011;23489;49.600;6.138;2023-02-21T05:52:00;22.02;;;12.95;;
37645;SDS011;23489;49.600;6.138;2023-02-21T05:54:28;26.67;;;12.55;;
37645;SDS011;23489;49.600;6.138;2023-02-21T05:56:54;22.42;;;13.02;;
37645;SDS011;23489;49.600;6.138;2023-02-21T05:59:20;24.42;;;14.27;;
37645;SDS011;23489;49.600;6.138;2023-02-21T06:01:46;26.83;;;14.07;;
37645;SDS011;23489;49.600;6.138;2023-02-21T06:04:12;26.60;;;14.75;;
37645;SDS011;23489;49.600;6.138;2023-02-21T06:06:38;30.25;;;15.52;;
37645;SDS011;23489;49.600;6.138;2023-02-21T06:09:04;26.85;;;14.15;;
37645;SDS011;23489;49.600;6.138;2023-02-21T06:11:31;27.77;;;15.40;;
37645;SDS011;23489;49.600;6.138;2023-02-21T06:13:58;31.73;;;16.27;;
37645;SDS011;23489;49.600;6.138;2023-02-21T06:16:31;30.52;;;15.80;;
37645;SDS011;23489;49.600;6.138;2023-02-21T06:19:04;31.48;;;16.00;;
37645;SDS011;23489;49.600;6.138;2023-02-21T06:21:31;34.67;;;17.23;;
37645;SDS011;23489;49.600;6.138;2023-02-21T06:23:57;48.67;;;18.15;;
37645;SDS011;23489;49.600;6.138;2023-02-21T06:26:23;51.85;;;18.90;;
37645;SDS011;23489;49.600;6.138;2023-02-21T06:28:49;53.95;;;18.67;;
37645;SDS011;23489;49.600;6.138;2023-02-21T06:31:15;51.55;;;20.30;;
37645;SDS011;23489;49.600;6.138;2023-02-21T06:33:41;50.92;;;19.85;;
37645;SDS011;23489;49.600;6.138;2023-02-21T06:36:09;47.88;;;22.63;;
37645;SDS011;23489;49.600;6.138;2023-02-21T06:38:37;49.95;;;21.42;;
37645;SDS011;23489;49.600;6.138;2023-02-21T06:41:07;50.03;;;21.02;;
37645;SDS011;23489;49.600;6.138;2023-02-21T06:43:33;46.58;;;19.85;;
37645;SDS011;23489;49.600;6.138;2023-02-21T06:46:02;52.65;;;20.55;;
37645;SDS011;23489;49.600;6.138;2023-02-21T06:48:28;42.40;;;19.85;;
37645;SDS011;23489;49.600;6.138;2023-02-21T06:50:54;44.33;;;21.42;;
37645;SDS011;23489;49.600;6.138;2023-02-21T06:53:20;35.05;;;19.77;;
37645;SDS011;23489;49.600;6.138;2023-02-21T06:55:46;38.40;;;19.75;;
37645;SDS011;23489;49.600;6.138;2023-02-21T06:58:11;42.22;;;20.73;;
37645;SDS011;23489;49.600;6.138;2023-02-21T07:00:37;45.00;;;21.17;;
37645;SDS011;23489;49.600;6.138;2023-02-21T07:03:03;41.15;;;20.50;;
37645;SDS011;23489;49.600;6.138;2023-02-21T07:05:28;38.85;;;18.45;;
37645;SDS011;23489;49.600;6.138;2023-02-21T07:07:58;39.42;;;19.30;;
37645;SDS011;23489;49.600;6.138;2023-02-21T07:10:27;43.90;;;20.77;;
37645;SDS011;23489;49.600;6.138;2023-02-21T07:12:54;44.00;;;19.52;;
37645;SDS011;23489;49.600;6.138;2023-02-21T07:15:20;45.67;;;18.15;;
37645;SDS011;23489;49.600;6.138;2023-02-21T07:17:46;34.35;;;18.67;;
37645;SDS011;23489;49.600;6.138;2023-02-21T07:20:11;58.13;;;20.90;;
37645;SDS011;23489;49.600;6.138;2023-02-21T07:22:37;46.20;;;19.80;;
37645;SDS011;23489;49.600;6.138;2023-02-21T07:25:02;45.42;;;18.77;;
37645;SDS011;23489;49.600;6.138;2023-02-21T07:27:28;51.13;;;20.75;;
37645;SDS011;23489;49.600;6.138;2023-02-21T07:29:54;55.55;;;20.15;;
37645;SDS011;23489;49.600;6.138;2023-02-21T07:32:20;77.65;;;22.77;;
37645;SDS011;23489;49.600;6.138;2023-02-21T07:34:46;53.40;;;17.75;;
37645;SDS011;23489;49.600;6.138;2023-02-21T07:37:12;41.53;;;18.20;;
37645;SDS011;23489;49.600;6.138;2023-02-21T07:39:37;49.88;;;18.95;;
37645;SDS011;23489;49.600;6.138;2023-02-21T07:42:03;81.80;;;20.15;;
37645;SDS011;23489;49.600;6.138;2023-02-21T07:44:29;62.00;;;20.15;;
37645;SDS011;23489;49.600;6.138;2023-02-21T07:46:56;53.72;;;17.63;;
37645;SDS011;23489;49.600;6.138;2023-02-21T07:49:22;55.70;;;17.92;;
37645;SDS011;23489;49.600;6.138;2023-02-21T07:51:47;44.90;;;17.55;;
37645;SDS011;23489;49.600;6.138;2023-02-21T07:54:14;25.70;;;14.40;;
37645;SDS011;23489;49.600;6.138;2023-02-21T07:56:43;19.77;;;14.10;;
37645;SDS011;23489;49.600;6.138;2023-02-21T07:59:10;18.85;;;13.88;;
37645;SDS011;23489;49.600;6.138;2023-02-21T08:01:35;31.23;;;14.45;;
37645;SDS011;23489;49.600;6.138;2023-02-21T08:04:01;25.88;;;13.75;;
37645;SDS011;23489;49.600;6.138;2023-02-21T08:06:27;27.70;;;15.05;;
37645;SDS011;23489;49.600;6.138;2023-02-21T08:08:53;25.20;;;15.25;;
37645;SDS011;23489;49.600;6.138;2023-02-21T08:11:18;20.70;;;14.27;;
37645;SDS011;23489;49.600;6.138;2023-02-21T08:13:44;23.80;;;13.98;;
37645;SDS011;23489;49.600;6.138;2023-02-21T08:16:09;21.13;;;14.57;;
37645;SDS011;23489;49.600;6.138;2023-02-21T08:18:35;25.95;;;14.23;;
37645;SDS011;23489;49.600;6.138;2023-02-21T08:21:01;23.23;;;14.02;;
37645;SDS011;23489;49.600;6.138;2023-02-21T08:23:27;24.77;;;12.48;;
37645;SDS011;23489;49.600;6.138;2023-02-21T08:25:52;19.50;;;12.45;;
37645;SDS011;23489;49.600;6.138;2023-02-21T08:28:19;19.92;;;12.98;;
37645;SDS011;23489;49.600;6.138;2023-02-21T08:30:45;25.60;;;12.77;;
37645;SDS011;23489;49.600;6.138;2023-02-21T08:33:10;22.38;;;11.70;;
37645;SDS011;23489;49.600;6.138;2023-02-21T08:35:36;24.55;;;12.60;;
37645;SDS011;23489;49.600;6.138;2023-02-21T08:38:02;28.45;;;13.27;;
37645;SDS011;23489;49.600;6.138;2023-02-21T08:40:30;17.27;;;12.10;;
37645;SDS011;23489;49.600;6.138;2023-02-21T08:45:23;24.57;;;13.50;;
37645;SDS011;23489;49.600;6.138;2023-02-21T08:47:50;26.45;;;14.00;;
37645;SDS011;23489;49.600;6.138;2023-02-21T08:50:16;21.55;;;12.82;;
37645;SDS011;23489;49.600;6.138;2023-02-21T08:52:46;18.98;;;13.05;;
37645;SDS011;23489;49.600;6.138;2023-02-21T08:55:13;20.33;;;13.98;;
37645;SDS011;23489;49.600;6.138;2023-02-21T08:57:39;21.63;;;13.20;;
37645;SDS011;23489;49.600;6.138;2023-02-21T09:00:05;20.63;;;13.48;;
37645;SDS011;23489;49.600;6.138;2023-02-21T09:02:34;22.83;;;13.25;;
37645;SDS011;23489;49.600;6.138;2023-02-21T09:05:05;19.88;;;12.75;;
37645;SDS011;23489;49.600;6.138;2023-02-21T09:07:35;21.40;;;13.55;;
37645;SDS011;23489;49.600;6.138;2023-02-21T09:10:01;23.20;;;12.63;;
37645;SDS011;23489;49.600;6.138;2023-02-21T09:12:27;21.77;;;12.45;;
37645;SDS011;23489;49.600;6.138;2023-02-21T09:14:53;22.42;;;13.65;;
37645;SDS011;23489;49.600;6.138;2023-02-21T09:17:19;17.45;;;12.77;;
37645;SDS011;23489;49.600;6.138;2023-02-21T09:19:44;21.20;;;13.15;;
37645;SDS011;23489;49.600;6.138;2023-02-21T09:22:10;21.90;;;13.50;;
37645;SDS011;23489;49.600;6.138;2023-02-21T09:24:36;22.52;;;12.63;;
37645;SDS011;23489;49.600;6.138;2023-02-21T09:27:02;18.05;;;12.57;;
37645;SDS011;23489;49.600;6.138;2023-02-21T09:29:30;20.80;;;13.95;;
37645;SDS011;23489;49.600;6.138;2023-02-21T09:31:58;19.92;;;13.00;;
37645;SDS011;23489;49.600;6.138;2023-02-21T09:34:24;19.70;;;13.07;;
37645;SDS011;23489;49.600;6.138;2023-02-21T09:36:50;21.77;;;16.08;;
37645;SDS011;23489;49.600;6.138;2023-02-21T09:39:16;28.58;;;20.70;;
37645;SDS011;23489;49.600;6.138;2023-02-21T09:41:42;17.27;;;13.07;;
37645;SDS011;23489;49.600;6.138;2023-02-21T09:44:10;22.77;;;13.60;;
37645;SDS011;23489;49.600;6.138;2023-02-21T09:46:47;20.10;;;13.98;;
37645;SDS011;23489;49.600;6.138;2023-02-21T09:56:43;18.27;;;11.88;;
37645;SDS011;23489;49.600;6.138;2023-02-21T09:59:10;19.65;;;12.48;;
37645;SDS011;23489;49.600;6.138;2023-02-21T10:04:32;19.75;;;11.68;;
37645;SDS011;23489;49.600;6.138;2023-02-21T10:09:40;26.58;;;12.38;;
37645;SDS011;23489;49.600;6.138;2023-02-21T10:12:29;17.33;;;12.30;;
37645;SDS011;23489;49.600;6.138;2023-02-21T10:17:58;16.27;;;12.23;;
37645;SDS011;23489;49.600;6.138;2023-02-21T10:23:22;19.63;;;11.80;;
37645;SDS011;23489;49.600;6.138;2023-02-21T10:25:56;22.85;;;12.75;;
37645;SDS011;23489;49.600;6.138;2023-02-21T10:28:26;16.42;;;12.48;;
37645;SDS011;23489;49.600;6.138;2023-02-21T10:30:59;21.88;;;12.32;;
37645;SDS011;23489;49.600;6.138;2023-02-21T10:33:29;19.98;;;10.98;;
37645;SDS011;23489;49.600;6.138;2023-02-21T10:35:55;13.35;;;11.40;;
37645;SDS011;23489;49.600;6.138;2023-02-21T10:38:23;19.58;;;10.98;;
37645;SDS011;23489;49.600;6.138;2023-02-21T10:40:51;23.63;;;11.55;;
37645;SDS011;23489;49.600;6.138;2023-02-21T10:43:25;14.88;;;10.60;;
37645;SDS011;23489;49.600;6.138;2023-02-21T10:46:12;17.98;;;10.63;;
37645;SDS011;23489;49.600;6.138;2023-02-21T10:48:54;13.88;;;9.85;;
37645;SDS011;23489;49.600;6.138;2023-02-21T10:51:43;22.85;;;11.00;;
37645;SDS011;23489;49.600;6.138;2023-02-21T10:54:19;18.70;;;10.93;;
37645;SDS011;23489;49.600;6.138;2023-02-21T10:56:47;18.17;;;12.43;;
37645;SDS011;23489;49.600;6.138;2023-02-21T10:59:30;24.23;;;11.68;;
37645;SDS011;23489;49.600;6.138;2023-02-21T11:02:02;16.67;;;11.27;;
37645;SDS011;23489;49.600;6.138;2023-02-21T11:04:49;24.38;;;13.88;;
37645;SDS011;23489;49.600;6.138;2023-02-21T11:07:17;28.20;;;17.30;;
37645;SDS011;23489;49.600;6.138;2023-02-21T11:09:46;28.60;;;15.32;;
37645;SDS011;23489;49.600;6.138;2023-02-21T11:17:19;17.00;;;11.50;;
37645;SDS011;23489;49.600;6.138;2023-02-21T11:19:52;16.75;;;10.65;;
37645;SDS011;23489;49.600;6.138;2023-02-21T11:24:59;17.23;;;11.52;;
37645;SDS011;23489;49.600;6.138;2023-02-21T11:27:30;25.30;;;11.90;;
37645;SDS011;23489;49.600;6.138;2023-02-21T11:29:58;22.05;;;12.45;;
37645;SDS011;23489;49.600;6.138;2023-02-21T11:32:35;20.27;;;12.05;;
37645;SDS011;23489;49.600;6.138;2023-02-21T11:38:45;19.95;;;11.60;;
37645;SDS011;23489;49.600;6.138;2023-02-21T11:40:55;24.63;;;14.05;;
37645;SDS011;23489;49.600;6.138;2023-02-21T11:46:07;25.27;;;13.63;;
37645;SDS011;23489;49.600;6.138;2023-02-21T11:51:28;27.40;;;13.88;;
37645;SDS011;23489;49.600;6.138;2023-02-21T11:54:13;28.58;;;16.88;;
37645;SDS011;23489;49.600;6.138;2023-02-21T12:04:42;19.08;;;12.00;;
37645;SDS011;23489;49.600;6.138;2023-02-21T12:20:35;21.93;;;13.40;;
37645;SDS011;23489;49.600;6.138;2023-02-21T12:23:24;19.63;;;11.30;;
37645;SDS011;23489;49.600;6.138;2023-02-21T12:39:59;21.25;;;11.18;;
37645;SDS011;23489;49.600;6.138;2023-02-21T12:42:43;17.77;;;11.38;;
37645;SDS011;23489;49.600;6.138;2023-02-21T12:45:44;17.92;;;10.15;;
37645;SDS011;23489;49.600;6.138;2023-02-21T12:48:32;18.88;;;10.70;;
37645;SDS011;23489;49.600;6.138;2023-02-21T12:51:05;19.58;;;10.50;;
37645;SDS011;23489;49.600;6.138;2023-02-21T12:56:18;19.35;;;10.63;;
37645;SDS011;23489;49.600;6.138;2023-02-21T13:01:43;16.60;;;10.98;;
37645;SDS011;23489;49.600;6.138;2023-02-21T13:09:36;14.48;;;10.25;;
37645;SDS011;23489;49.600;6.138;2023-02-21T13:14:54;15.18;;;9.45;;
37645;SDS011;23489;49.600;6.138;2023-02-21T13:17:24;12.88;;;8.98;;
37645;SDS011;23489;49.600;6.138;2023-02-21T13:20:01;13.75;;;9.82;;
37645;SDS011;23489;49.600;6.138;2023-02-21T13:28:58;15.35;;;8.70;;
37645;SDS011;23489;49.600;6.138;2023-02-21T13:31:42;14.70;;;9.38;;
37645;SDS011;23489;49.600;6.138;2023-02-21T13:34:10;15.70;;;9.00;;
37645;SDS011;23489;49.600;6.138;2023-02-21T13:36:43;14.10;;;8.95;;
37645;SDS011;23489;49.600;6.138;2023-02-21T13:39:12;13.65;;;9.73;;
37645;SDS011;23489;49.600;6.138;2023-02-21T13:45:05;17.80;;;9.98;;
37645;SDS011;23489;49.600;6.138;2023-02-21T13:50:39;13.30;;;9.70;;
37645;SDS011;23489;49.600;6.138;2023-02-21T14:03:47;16.08;;;9.65;;
37645;SDS011;23489;49.600;6.138;2023-02-21T14:06:24;22.00;;;9.63;;
37645;SDS011;23489;49.600;6.138;2023-02-21T14:08:56;17.33;;;10.02;;
37645;SDS011;23489;49.600;6.138;2023-02-21T14:11:27;19.83;;;9.40;;
37645;SDS011;23489;49.600;6.138;2023-02-21T14:13:58;19.95;;;9.65;;
37645;SDS011;23489;49.600;6.138;2023-02-21T14:16:30;14.70;;;9.60;;
37645;SDS011;23489;49.600;6.138;2023-02-21T14:19:11;14.68;;;9.40;;
37645;SDS011;23489;49.600;6.138;2023-02-21T14:21:47;12.57;;;9.25;;
37645;SDS011;23489;49.600;6.138;2023-02-21T14:24:18;18.08;;;9.50;;
37645;SDS011;23489;49.600;6.138;2023-02-21T14:39:57;16.95;;;9.20;;
37645;SDS011;23489;49.600;6.138;2023-02-21T14:42:41;15.07;;;8.00;;
37645;SDS011;23489;49.600;6.138;2023-02-21T14:56:47;13.32;;;7.93;;
37645;SDS011;23489;49.600;6.138;2023-02-21T15:02:56;10.85;;;6.78;;
37645;SDS011;23489;49.600;6.138;2023-02-21T15:10:43;13.40;;;7.57;;
37645;SDS011;23489;49.600;6.138;2023-02-21T15:13:24;11.63;;;7.22;;
37645;SDS011;23489;49.600;6.138;2023-02-21T15:15:58;13.45;;;7.13;;
37645;SDS011;23489;49.600;6.138;2023-02-21T15:18:30;12.68;;;6.88;;
37645;SDS011;23489;49.600;6.138;2023-02-21T15:21:03;10.60;;;6.25;;
37645;SDS011;23489;49.600;6.138;2023-02-21T15:23:35;13.45;;;7.07;;
37645;SDS011;23489;49.600;6.138;2023-02-21T15:26:25;16.50;;;7.30;;
37645;SDS011;23489;49.600;6.138;2023-02-21T15:31:35;11.75;;;6.53;;
37645;SDS011;23489;49.600;6.138;2023-02-21T15:34:18;12.93;;;6.28;;
37645;SDS011;23489;49.600;6.138;2023-02-21T15:36:46;12.13;;;7.38;;
37645;SDS011;23489;49.600;6.138;2023-02-21T15:39:23;14.05;;;8.65;;
37645;SDS011;23489;49.600;6.138;2023-02-21T15:41:54;16.77;;;9.25;;
37645;SDS011;23489;49.600;6.138;2023-02-21T15:51:55;16.77;;;10.10;;
37645;SDS011;23489;49.600;6.138;2023-02-21T15:57:03;13.18;;;9.23;;
37645;SDS011;23489;49.600;6.138;2023-02-21T15:59:32;19.92;;;9.80;;
37645;SDS011;23489;49.600;6.138;2023-02-21T16:04:43;13.60;;;9.25;;
37645;SDS011;23489;49.600;6.138;2023-02-21T16:07:30;17.58;;;9.52;;
37645;SDS011;23489;49.600;6.138;2023-02-21T16:10:03;17.02;;;10.00;;
37645;SDS011;23489;49.600;6.138;2023-02-21T16:12:34;18.47;;;10.30;;
37645;SDS011;23489;49.600;6.138;2023-02-21T16:17:50;16.45;;;9.82;;
37645;SDS011;23489;49.600;6.138;2023-02-21T16:20:29;15.25;;;9.00;;
37645;SDS011;23489;49.600;6.138;2023-02-21T16:26:17;19.88;;;10.85;;
37645;SDS011;23489;49.600;6.138;2023-02-21T16:28:47;18.23;;;10.68;;
37645;SDS011;23489;49.600;6.138;2023-02-21T16:31:14;20.83;;;11.73;;
37645;SDS011;23489;49.600;6.138;2023-02-21T16:33:48;18.73;;;10.93;;
37645;SDS011;23489;49.600;6.138;2023-02-21T16:36:23;16.55;;;9.85;;
37645;SDS011;23489;49.600;6.138;2023-02-21T16:38:51;14.27;;;9.82;;
37645;SDS011;23489;49.600;6.138;2023-02-21T16:41:18;17.33;;;9.10;;
37645;SDS011;23489;49.600;6.138;2023-02-21T16:43:44;17.85;;;9.77;;
37645;SDS011;23489;49.600;6.138;2023-02-21T16:46:10;13.75;;;8.98;;
37645;SDS011;23489;49.600;6.138;2023-02-21T16:48:37;18.13;;;9.70;;
37645;SDS011;23489;49.600;6.138;2023-02-21T16:51:04;15.27;;;8.48;;
37645;SDS011;23489;49.600;6.138;2023-02-21T16:53:34;16.67;;;9.25;;
37645;SDS011;23489;49.600;6.138;2023-02-21T16:56:00;16.05;;;9.30;;
37645;SDS011;23489;49.600;6.138;2023-02-21T16:58:35;20.70;;;9.48;;
37645;SDS011;23489;49.600;6.138;2023-02-21T17:01:14;14.02;;;9.10;;
37645;SDS011;23489;49.600;6.138;2023-02-21T17:03:44;15.32;;;9.20;;
37645;SDS011;23489;49.600;6.138;2023-02-21T17:06:13;18.73;;;9.73;;
37645;SDS011;23489;49.600;6.138;2023-02-21T17:08:43;16.65;;;9.75;;
37645;SDS011;23489;49.600;6.138;2023-02-21T17:11:08;14.20;;;9.15;;
37645;SDS011;23489;49.600;6.138;2023-02-21T17:13:34;15.95;;;8.93;;
37645;SDS011;23489;49.600;6.138;2023-02-21T17:15:59;19.35;;;9.85;;
37645;SDS011;23489;49.600;6.138;2023-02-21T17:18:25;24.02;;;15.00;;
37645;SDS011;23489;49.600;6.138;2023-02-21T17:20:53;23.70;;;12.02;;
37645;SDS011;23489;49.600;6.138;2023-02-21T17:23:19;19.23;;;10.85;;
37645;SDS011;23489;49.600;6.138;2023-02-21T17:25:45;19.92;;;10.52;;
37645;SDS011;23489;49.600;6.138;2023-02-21T17:28:11;17.92;;;9.65;;
37645;SDS011;23489;49.600;6.138;2023-02-21T17:30:37;23.15;;;11.27;;
37645;SDS011;23489;49.600;6.138;2023-02-21T17:33:02;17.10;;;10.82;;
37645;SDS011;23489;49.600;6.138;2023-02-21T17:35:29;15.85;;;9.65;;
37645;SDS011;23489;49.600;6.138;2023-02-21T17:37:56;18.13;;;9.57;;
37645;SDS011;23489;49.600;6.138;2023-02-21T17:40:25;20.88;;;10.30;;
37645;SDS011;23489;49.600;6.138;2023-02-21T17:42:51;31.55;;;17.90;;
37645;SDS011;23489;49.600;6.138;2023-02-21T17:45:18;26.52;;;15.02;;
37645;SDS011;23489;49.600;6.138;2023-02-21T17:47:46;18.35;;;12.00;;
37645;SDS011;23489;49.600;6.138;2023-02-21T17:50:12;19.10;;;12.05;;
37645;SDS011;23489;49.600;6.138;2023-02-21T17:52:38;21.50;;;11.82;;
37645;SDS011;23489;49.600;6.138;2023-02-21T17:55:05;21.23;;;11.00;;
37645;SDS011;23489;49.600;6.138;2023-02-21T17:57:35;23.25;;;11.88;;
37645;SDS011;23489;49.600;6.138;2023-02-21T18:00:05;20.48;;;11.68;;